Time;durP1;ratioP1;P1;durP2;ratioP2;P2;SDS_P1;SDS_P2;PMS_P1;PMS_P2;Temp;Humidity;BMP_temperature;BMP_pressure;BME280_temperature;BME280_humidity;BME280_pressure;Samples;Min_cycle;Max_cycle;Signal;HPM_P1;HPM_P2
2021/07/14 00:00:37;;;;;;;;;29.25;28.25;;;;;18.40;86.32;101111.78;4996067;28;45512;-68
2021/07/14 00:03:02;;;;;;;;;32.25;27.75;;;;;18.37;86.83;101106.66;4993931;28;46446;-69
2021/07/14 00:05:28;;;;;;;;;31.50;30.00;;;;;18.38;86.47;101107.53;4995317;28;45429;-69
2021/07/14 00:07:53;;;;;;;;;33.25;29.25;;;;;18.34;86.79;101098.91;4995891;28;45418;-69
2021/07/14 00:10:22;;;;;;;;;30.75;26.75;;;;;18.33;86.60;101104.34;4995944;28;45516;-69
2021/07/14 00:12:55;;;;;;;;;32.50;25.75;;;;;18.30;86.03;101100.06;4996177;28;45847;-69
2021/07/14 00:23:12;;;;;;;;;33.50;29.25;;;;;18.21;86.92;101106.88;4995385;28;45755;-69
2021/07/14 00:25:37;;;;;;;;;31.75;27.75;;;;;18.20;86.66;101105.19;4995336;28;45324;-69
2021/07/14 00:28:03;;;;;;;;;35.00;29.75;;;;;18.21;86.71;101111.34;4978118;28;45611;-68
2021/07/14 00:30:30;;;;;;;;;32.75;28.50;;;;;18.16;86.54;101108.16;4996421;28;45358;-69
2021/07/14 00:32:56;;;;;;;;;30.50;28.00;;;;;18.15;86.16;101109.13;4994673;28;47234;-69
2021/07/14 00:35:21;;;;;;;;;24.25;20.50;;;;;18.14;86.77;101113.59;4995121;28;45422;-69
2021/07/14 00:37:47;;;;;;;;;29.25;26.75;;;;;18.13;86.83;101116.34;4995540;28;45369;-69
2021/07/14 00:40:12;;;;;;;;;28.00;24.25;;;;;18.07;86.07;101108.81;4995415;28;45488;-69
2021/07/14 00:42:40;;;;;;;;;28.00;24.50;;;;;18.14;86.44;101115.41;4995952;28;45667;-69
2021/07/14 00:45:07;;;;;;;;;28.50;25.50;;;;;18.09;86.18;101106.88;4995676;28;45507;-69
2021/07/14 00:47:34;;;;;;;;;31.75;25.50;;;;;18.11;86.71;101115.59;4994761;28;45496;-69
2021/07/14 00:50:01;;;;;;;;;29.75;23.25;;;;;18.09;86.57;101115.72;4994932;28;46045;-70
2021/07/14 00:52:27;;;;;;;;;30.50;26.25;;;;;18.03;86.40;101107.31;4995221;28;45743;-69
2021/07/14 00:54:52;;;;;;;;;24.75;23.75;;;;;18.06;86.34;101115.06;4995619;28;45413;-69
2021/07/14 00:57:20;;;;;;;;;27.25;22.50;;;;;18.02;86.40;101106.47;4995093;28;45732;-69
2021/07/14 00:59:46;;;;;;;;;29.25;23.00;;;;;18.04;86.35;101111.66;4995233;28;45423;-70
2021/07/14 01:02:13;;;;;;;;;29.50;25.00;;;;;18.03;87.00;101118.78;4994486;28;46584;-71
2021/07/14 01:04:42;;;;;;;;;25.00;23.50;;;;;17.99;86.65;101114.63;4993697;28;45645;-69
2021/07/14 01:07:53;;;;;;;;;23.00;22.00;;;;;18.00;86.58;101117.19;4995142;28;45553;-69
2021/07/14 01:10:35;;;;;;;;;34.25;24.75;;;;;17.96;86.36;101117.50;4943346;28;45496;-70
2021/07/14 01:13:16;;;;;;;;;26.50;23.25;;;;;17.94;86.85;101117.59;4944763;28;45685;-69
2021/07/14 01:15:51;;;;;;;;;29.75;24.00;;;;;17.91;86.56;101106.34;4952913;28;45800;-70
2021/07/14 01:18:31;;;;;;;;;26.25;23.00;;;;;17.89;86.68;101114.41;4954024;28;45417;-69
2021/07/14 01:20:59;;;;;;;;;27.75;23.75;;;;;17.90;86.28;101117.91;4953142;28;45777;-69
2021/07/14 01:23:35;;;;;;;;;26.25;22.75;;;;;17.84;86.82;101119.16;4952229;28;45518;-69
2021/07/14 01:26:12;;;;;;;;;25.50;22.00;;;;;17.88;86.90;101126.00;4950744;28;45386;-69
2021/07/14 01:28:41;;;;;;;;;25.25;21.50;;;;;17.87;86.92;101118.97;4949693;28;45592;-69
2021/07/14 01:31:11;;;;;;;;;23.00;20.75;;;;;17.88;86.80;101123.34;4943733;28;45528;-69
2021/07/14 01:33:40;;;;;;;;;21.00;19.25;;;;;17.86;86.38;101119.09;4946929;28;46749;-69
2021/07/14 01:36:11;;;;;;;;;22.50;19.50;;;;;17.86;87.14;101119.94;4945832;28;45742;-69
2021/07/14 01:38:41;;;;;;;;;18.75;17.75;;;;;17.86;86.81;101119.94;4949463;28;45361;-69
2021/07/14 01:41:07;;;;;;;;;21.00;19.00;;;;;17.83;86.41;101106.00;4953248;28;45572;-69
2021/07/14 01:43:39;;;;;;;;;20.50;19.00;;;;;17.85;86.31;101115.56;4944260;28;47137;-69
2021/07/14 01:46:07;;;;;;;;;25.00;16.50;;;;;17.84;86.63;101099.72;4960839;28;45752;-69
2021/07/14 01:48:36;;;;;;;;;17.25;16.00;;;;;17.80;86.75;101101.75;4994985;28;45700;-69
2021/07/14 01:51:02;;;;;;;;;17.00;15.00;;;;;17.74;86.26;101102.13;4993929;28;45362;-70
2021/07/14 01:53:29;;;;;;;;;19.75;14.75;;;;;17.72;86.22;101096.94;4994525;28;46336;-69
2021/07/14 01:55:55;;;;;;;;;18.75;16.25;;;;;17.69;86.09;101098.91;4994561;28;45469;-69
2021/07/14 01:58:26;;;;;;;;;18.25;15.25;;;;;17.69;85.94;101097.09;4993683;28;45430;-68
2021/07/14 02:00:54;;;;;;;;;18.25;15.25;;;;;17.65;86.18;101092.97;4994595;28;45251;-69
2021/07/14 02:06:00;;;;;;;;;16.25;14.75;;;;;17.63;85.93;101096.66;4994171;28;45388;-69
2021/07/14 02:08:25;;;;;;;;;18.25;14.25;;;;;17.58;85.46;101088.97;4993971;28;45989;-68
2021/07/14 02:10:52;;;;;;;;;15.50;14.50;;;;;17.49;85.98;101065.72;4994045;28;45472;-68
2021/07/14 02:13:20;;;;;;;;;16.50;14.50;;;;;17.60;85.95;101088.91;4994129;28;45456;-68
2021/07/14 02:15:51;;;;;;;;;16.00;12.00;;;;;17.55;85.52;101086.56;4994358;28;45791;-69
2021/07/14 02:18:21;;;;;;;;;12.25;11.00;;;;;17.57;85.60;101084.63;4994764;28;45453;-68
2021/07/14 02:20:47;;;;;;;;;11.25;10.00;;;;;17.53;85.84;101084.94;4993599;28;45511;-69
2021/07/14 02:23:13;;;;;;;;;12.00;12.00;;;;;17.51;85.63;101082.38;4993848;28;46217;-69
2021/07/14 02:25:38;;;;;;;;;11.75;10.50;;;;;17.46;85.32;101081.84;4993720;28;45346;-69
2021/07/14 02:28:04;;;;;;;;;12.75;11.25;;;;;17.49;85.76;101105.56;4992988;28;45526;-69
2021/07/14 02:30:30;;;;;;;;;9.00;9.00;;;;;17.45;85.04;101096.94;4994586;28;45747;-69
2021/07/14 02:32:57;;;;;;;;;8.50;8.00;;;;;17.47;85.21;101105.63;4994087;28;46205;-68
2021/07/14 02:35:24;;;;;;;;;11.50;9.00;;;;;17.44;85.79;101103.19;4993344;28;45896;-68
2021/07/14 02:37:56;;;;;;;;;10.00;9.00;;;;;17.45;85.50;101112.88;4994110;28;45459;-69
2021/07/14 02:40:33;;;;;;;;;14.00;11.50;;;;;17.43;85.53;101117.41;4995481;28;45707;-69
2021/07/14 02:43:02;;;;;;;;;11.25;10.25;;;;;17.39;85.53;101118.59;4997295;28;46436;-70
2021/07/14 02:45:29;;;;;;;;;11.25;9.75;;;;;17.35;85.70;101116.22;4997502;28;45401;-68
2021/07/14 02:47:58;;;;;;;;;11.75;10.00;;;;;17.37;85.87;101117.81;4997281;28;45350;-68
2021/07/14 02:50:26;;;;;;;;;11.00;10.50;;;;;17.36;85.34;101118.78;4996806;28;45321;-69
2021/07/14 02:52:55;;;;;;;;;14.00;12.00;;;;;17.36;85.60;101123.25;4996884;28;45525;-69
2021/07/14 02:55:24;;;;;;;;;12.00;9.75;;;;;17.35;85.61;101127.72;4997173;28;45502;-69
2021/07/14 02:57:54;;;;;;;;;20.00;13.50;;;;;17.33;84.93;101123.44;4997243;28;45380;-69
2021/07/14 03:00:21;;;;;;;;;15.00;13.50;;;;;17.21;84.80;101110.00;4996585;28;45345;-69
2021/07/14 03:02:48;;;;;;;;;15.25;14.00;;;;;17.30;85.21;101126.31;4996845;28;46334;-69
2021/07/14 03:05:15;;;;;;;;;19.25;15.00;;;;;17.33;85.24;101128.75;4996929;28;45799;-69
2021/07/14 03:07:43;;;;;;;;;16.00;13.00;;;;;17.22;85.51;101119.66;4996700;28;45456;-69
2021/07/14 03:10:10;;;;;;;;;16.25;14.75;;;;;17.28;85.08;101123.75;4981355;28;45521;-68
2021/07/14 03:12:37;;;;;;;;;17.00;14.75;;;;;17.19;85.58;101113.72;4996735;28;48032;-69
2021/07/14 03:15:07;;;;;;;;;14.00;11.75;;;;;17.27;85.87;101118.53;4997075;28;45238;-70
2021/07/14 03:17:33;;;;;;;;;16.00;13.75;;;;;17.27;85.65;101115.88;4997034;28;45408;-68
2021/07/14 03:20:03;;;;;;;;;17.25;14.00;;;;;17.25;85.78;101123.09;4996406;28;45392;-68
2021/07/14 03:22:29;;;;;;;;;11.50;9.25;;;;;17.25;85.55;101118.63;4996206;28;45519;-68
2021/07/14 03:24:56;;;;;;;;;9.50;9.00;;;;;17.26;85.78;101127.44;4995961;28;45854;-69
2021/07/14 03:27:21;;;;;;;;;12.00;10.50;;;;;17.26;85.93;101133.59;4997508;28;45492;-69
2021/07/14 03:29:50;;;;;;;;;11.50;9.75;;;;;17.23;85.84;101139.13;4996118;28;45554;-69
2021/07/14 03:32:17;;;;;;;;;9.25;8.75;;;;;17.26;85.30;101135.41;4996262;28;46886;-69
2021/07/14 03:34:43;;;;;;;;;11.25;8.25;;;;;17.22;85.41;101140.06;4996498;28;45685;-70
2021/07/14 03:37:09;;;;;;;;;9.75;9.75;;;;;17.21;85.61;101139.22;4996679;28;45479;-69
2021/07/14 03:39:36;;;;;;;;;11.00;11.00;;;;;17.26;86.01;101146.03;4996700;28;45512;-71
2021/07/14 03:42:06;;;;;;;;;10.00;7.75;;;;;17.28;85.64;101146.78;4995993;28;46646;-69
2021/07/14 03:44:33;;;;;;;;;9.25;9.25;;;;;17.29;86.15;101149.38;4995932;28;45437;-69
2021/07/14 03:47:01;;;;;;;;;8.75;8.25;;;;;17.31;85.62;101152.75;4987665;28;45378;-69
2021/07/14 03:49:27;;;;;;;;;12.00;10.00;;;;;17.31;85.67;101143.94;4996380;28;46016;-69
2021/07/14 03:51:54;;;;;;;;;10.25;8.75;;;;;17.34;85.61;101155.22;4994202;28;45635;-69
2021/07/14 03:54:20;;;;;;;;;10.50;9.00;;;;;17.31;85.73;101154.56;4996043;28;45384;-69
2021/07/14 03:56:46;;;;;;;;;9.75;8.75;;;;;17.31;85.71;101158.06;4995782;28;45407;-70
2021/07/14 03:59:12;;;;;;;;;8.00;6.75;;;;;17.33;85.47;101158.84;4996153;28;45349;-69
2021/07/14 04:01:37;;;;;;;;;9.25;7.50;;;;;17.34;85.62;101168.53;4996299;28;45657;-69
2021/07/14 04:04:05;;;;;;;;;7.25;7.00;;;;;17.33;85.82;101168.59;4995971;28;45527;-69
2021/07/14 04:06:33;;;;;;;;;8.50;7.75;;;;;17.32;85.80;101164.25;4996484;28;45421;-70
2021/07/14 04:09:20;;;;;;;;;12.00;9.75;;;;;17.34;85.58;101165.00;4995909;28;45341;-69
2021/07/14 04:11:48;;;;;;;;;7.00;7.00;;;;;17.32;85.68;101165.09;4996182;28;45677;-69
2021/07/14 04:14:14;;;;;;;;;7.50;5.75;;;;;17.26;85.62;101154.00;4995398;28;45574;-69
2021/07/14 04:16:39;;;;;;;;;8.50;8.50;;;;;17.33;85.40;101171.25;4996209;28;45555;-69
2021/07/14 04:19:05;;;;;;;;;9.50;9.50;;;;;17.32;85.27;101170.41;4995393;28;45626;-69
2021/07/14 04:21:30;;;;;;;;;7.00;6.50;;;;;17.32;85.07;101175.72;4996301;28;45518;-68
2021/07/14 04:23:56;;;;;;;;;7.00;7.00;;;;;17.31;85.36;101174.00;4994832;28;45558;-69
2021/07/14 04:26:23;;;;;;;;;7.75;6.75;;;;;17.29;85.53;101161.81;4995223;28;45530;-69
2021/07/14 04:28:48;;;;;;;;;10.75;7.75;;;;;17.30;85.69;101172.31;4995764;28;45578;-69
2021/07/14 04:31:13;;;;;;;;;7.50;7.25;;;;;17.30;85.59;101161.69;4994919;28;45664;-69
2021/07/14 04:33:41;;;;;;;;;10.25;8.25;;;;;17.28;85.33;101163.59;4995400;28;45381;-69
2021/07/14 04:36:07;;;;;;;;;6.50;6.50;;;;;17.28;85.25;101165.38;4995770;28;45541;-69
2021/07/14 04:38:32;;;;;;;;;10.50;7.50;;;;;17.28;85.65;101160.06;4995278;28;45466;-68
2021/07/14 04:40:57;;;;;;;;;8.25;8.25;;;;;17.24;85.32;101151.47;4995414;28;47076;-68
2021/07/14 04:43:23;;;;;;;;;7.25;6.00;;;;;17.18;85.77;101143.91;4977657;28;45440;-69
2021/07/14 04:45:48;;;;;;;;;7.50;7.50;;;;;17.32;85.52;101170.41;4995554;28;45415;-69
2021/07/14 04:48:13;;;;;;;;;10.50;7.50;;;;;17.32;85.67;101172.22;4995824;28;45452;-69
2021/07/14 04:50:38;;;;;;;;;10.50;7.00;;;;;17.30;85.78;101167.00;4994790;28;60165;-71
2021/07/14 04:53:04;;;;;;;;;10.00;8.75;;;;;17.36;85.32;101171.91;4994951;28;46738;-69
2021/07/14 04:55:29;;;;;;;;;8.75;6.25;;;;;17.34;85.75;101171.19;4984743;28;45489;-68
2021/07/14 04:57:54;;;;;;;;;9.00;7.00;;;;;17.38;85.92;101178.00;4994898;28;46927;-69
2021/07/14 05:00:20;;;;;;;;;12.50;9.00;;;;;17.37;85.45;101178.94;4995853;28;45527;-68
2021/07/14 05:02:46;;;;;;;;;11.00;8.75;;;;;17.38;85.10;101185.09;4994581;28;45454;-69
2021/07/14 05:05:13;;;;;;;;;9.25;8.50;;;;;17.33;85.32;101182.75;4994812;28;45349;-69
2021/07/14 05:07:39;;;;;;;;;11.50;9.00;;;;;17.28;84.96;101178.66;4994486;28;45475;-69
2021/07/14 05:10:05;;;;;;;;;10.25;7.50;;;;;17.35;85.20;101202.09;4995006;28;45486;-68
2021/07/14 05:12:30;;;;;;;;;8.25;8.25;;;;;17.33;85.30;101197.81;4995497;28;45552;-69
2021/07/14 05:14:55;;;;;;;;;8.50;7.75;;;;;17.36;85.14;101198.47;4994398;28;45354;-68
2021/07/14 05:17:21;;;;;;;;;8.25;7.50;;;;;17.36;85.19;101200.28;4994668;28;45518;-68
2021/07/14 05:19:46;;;;;;;;;8.50;8.00;;;;;17.35;85.11;101198.59;4994295;28;45557;-68
2021/07/14 05:22:13;;;;;;;;;10.25;10.00;;;;;17.37;84.99;101196.69;4994734;28;45366;-70
2021/07/14 05:24:39;;;;;;;;;9.00;8.25;;;;;17.38;84.99;101201.91;4995175;28;45455;-69
2021/07/14 05:27:04;;;;;;;;;10.00;9.00;;;;;17.40;85.44;101202.66;4994641;28;45654;-69
2021/07/14 05:29:29;;;;;;;;;11.25;9.50;;;;;17.39;85.02;101200.09;4994825;28;47084;-69
2021/07/14 05:31:55;;;;;;;;;11.50;8.75;;;;;17.40;85.20;101194.69;4994355;28;45498;-69
2021/07/14 05:34:20;;;;;;;;;10.25;9.00;;;;;17.46;85.14;101209.38;4994700;28;45472;-69
2021/07/14 05:36:46;;;;;;;;;11.00;11.00;;;;;17.45;85.43;101202.38;4994995;28;45520;-69
2021/07/14 05:39:11;;;;;;;;;10.25;8.75;;;;;17.52;85.43;101205.47;4994651;28;45491;-69
2021/07/14 05:41:37;;;;;;;;;13.00;11.75;;;;;17.56;85.08;101214.97;4994603;28;45681;-69
2021/07/14 05:44:02;;;;;;;;;15.00;11.25;;;;;17.57;85.01;101206.88;4994712;28;45465;-71
2021/07/14 05:46:28;;;;;;;;;11.00;10.00;;;;;17.64;85.14;101212.63;4994204;28;45460;-69
2021/07/14 05:49:00;;;;;;;;;11.00;8.50;;;;;17.57;85.06;101190.09;4994302;28;46505;-69
2021/07/14 05:51:25;;;;;;;;;7.25;7.25;;;;;17.67;85.23;101207.13;4992002;28;45528;-68
2021/07/14 05:53:50;;;;;;;;;6.00;6.00;;;;;17.68;84.95;101208.84;4994012;28;45376;-69
2021/07/14 05:56:16;;;;;;;;;9.75;8.25;;;;;17.69;84.62;101206.06;4994146;28;45451;-69
2021/07/14 05:58:41;;;;;;;;;9.50;9.00;;;;;17.65;85.01;101204.59;4994115;28;45584;-69
2021/07/14 06:01:09;;;;;;;;;11.25;8.00;;;;;17.66;84.40;101202.78;4993832;28;45382;-69
2021/07/14 06:03:34;;;;;;;;;14.50;11.00;;;;;17.63;85.08;101192.34;4995353;28;45327;-69
2021/07/14 06:05:59;;;;;;;;;11.00;9.75;;;;;17.72;84.90;101210.34;4994408;28;45558;-69
2021/07/14 06:08:25;;;;;;;;;12.75;11.50;;;;;17.77;85.09;101212.75;4994061;28;46140;-69
2021/07/14 06:10:50;;;;;;;;;13.50;10.00;;;;;17.76;85.06;101208.38;4993953;28;45558;-68
2021/07/14 06:13:16;;;;;;;;;9.00;9.00;;;;;17.74;84.68;101211.13;4994173;28;45897;-69
2021/07/14 06:15:41;;;;;;;;;10.25;8.25;;;;;17.77;84.77;101210.94;4997146;28;45934;-69
2021/07/14 06:18:06;;;;;;;;;8.50;8.50;;;;;17.71;84.95;101200.69;4997800;28;46044;-69
2021/07/14 06:20:32;;;;;;;;;12.00;8.75;;;;;17.76;85.01;101200.41;4996561;28;45571;-69
2021/07/14 06:22:57;;;;;;;;;10.00;10.00;;;;;17.79;84.42;101211.69;4997745;28;45545;-68
2021/07/14 06:25:22;;;;;;;;;11.50;9.75;;;;;17.82;84.38;101214.16;4997528;28;45368;-69
2021/07/14 06:27:48;;;;;;;;;10.75;9.00;;;;;17.70;84.55;101194.50;4996944;28;45554;-69
2021/07/14 06:30:15;;;;;;;;;12.00;9.25;;;;;17.82;84.23;101218.63;4997885;28;45607;-68
2021/07/14 06:32:40;;;;;;;;;8.00;7.00;;;;;17.84;84.17;101214.88;4996816;28;45440;-69
2021/07/14 06:35:08;;;;;;;;;12.50;8.50;;;;;17.89;84.21;101219.91;4997267;28;45520;-69
2021/07/14 06:37:34;;;;;;;;;9.00;7.25;;;;;17.90;84.43;101221.59;4997740;28;45429;-69
2021/07/14 06:39:59;;;;;;;;;7.50;7.00;;;;;17.92;83.40;101231.19;4995566;28;45496;-68
2021/07/14 06:42:25;;;;;;;;;10.00;9.00;;;;;17.94;84.03;101241.72;5001324;28;45583;-68
2021/07/14 06:44:51;;;;;;;;;9.25;8.75;;;;;17.94;83.51;101231.09;4997083;28;45674;-68
2021/07/14 06:47:17;;;;;;;;;7.00;7.00;;;;;17.98;83.89;101235.25;4996902;28;46297;-68
2021/07/14 06:49:42;;;;;;;;;8.50;6.50;;;;;18.02;83.78;101230.59;4996802;28;45839;-69
2021/07/14 06:52:08;;;;;;;;;7.00;5.00;;;;;18.03;83.52;101222.50;4996968;28;45365;-68
2021/07/14 06:54:34;;;;;;;;;5.75;4.25;;;;;18.12;82.92;101229.03;4996834;28;46181;-68
2021/07/14 06:56:59;;;;;;;;;6.00;6.00;;;;;18.13;83.55;101223.59;4996301;28;46611;-68
2021/07/14 06:59:24;;;;;;;;;6.75;5.00;;;;;18.17;82.52;101225.13;4996841;28;47197;-68
2021/07/14 07:01:50;;;;;;;;;6.00;6.00;;;;;18.15;83.15;101228.81;4996783;28;45472;-68
2021/07/14 07:04:15;;;;;;;;;9.75;6.00;;;;;18.17;83.33;101229.59;4996618;28;45573;-68
2021/07/14 07:06:40;;;;;;;;;6.00;4.75;;;;;18.19;83.39;101231.16;4995676;28;45439;-68
2021/07/14 07:09:07;;;;;;;;;6.00;6.00;;;;;18.25;83.04;101238.75;4996775;28;45435;-69
2021/07/14 07:11:34;;;;;;;;;5.75;5.25;;;;;18.27;83.33;101220.03;4995718;28;62396;-69
2021/07/14 07:14:01;;;;;;;;;7.00;5.75;;;;;18.38;82.98;101229.94;4996426;28;45465;-69
2021/07/14 07:16:26;;;;;;;;;8.00;5.00;;;;;18.47;83.00;101235.47;4996178;28;46634;-69
2021/07/14 07:18:52;;;;;;;;;7.00;7.00;;;;;18.56;82.96;101236.66;4996095;28;47189;-69
2021/07/14 07:21:17;;;;;;;;;8.00;6.00;;;;;18.72;82.94;101237.34;4997245;28;45366;-69
2021/07/14 07:23:45;;;;;;;;;5.25;5.25;;;;;18.85;82.24;101223.19;4995503;28;45382;-69
2021/07/14 07:26:15;;;;;;;;;6.50;6.00;;;;;19.01;81.76;101238.00;4995349;28;45543;-69
2021/07/14 07:28:41;;;;;;;;;7.25;6.50;;;;;19.00;81.50;101236.28;5000440;28;45642;-70
2021/07/14 07:31:11;;;;;;;;;6.50;6.50;;;;;19.02;81.11;101245.00;4994447;28;45480;-69
2021/07/14 07:33:39;;;;;;;;;5.50;5.50;;;;;19.04;81.11;101240.41;4995659;28;45617;-69
2021/07/14 07:36:06;;;;;;;;;8.50;7.00;;;;;19.04;81.23;101235.09;4993161;28;51025;-69
2021/07/14 07:38:36;;;;;;;;;5.50;5.50;;;;;19.13;81.04;101238.94;4989441;28;45696;-69
2021/07/14 07:41:02;;;;;;;;;7.00;6.50;;;;;19.17;81.08;101237.75;4996145;28;45909;-69
2021/07/14 07:43:29;;;;;;;;;7.00;5.75;;;;;19.25;81.31;101234.53;4993870;28;45500;-69
2021/07/14 07:45:55;;;;;;;;;7.00;6.00;;;;;19.37;80.88;101235.47;4995891;28;45684;-70
2021/07/14 07:48:22;;;;;;;;;6.75;6.00;;;;;19.46;80.63;101246.31;4995024;28;45384;-70
2021/07/14 07:50:48;;;;;;;;;8.50;8.25;;;;;19.54;80.58;101237.78;4996140;28;45632;-69
2021/07/14 07:53:18;;;;;;;;;6.25;6.00;;;;;19.76;80.40;101250.41;4995886;28;45600;-69
2021/07/14 07:55:45;;;;;;;;;8.75;4.75;;;;;19.95;79.70;101240.09;4995305;28;45592;-69
2021/07/14 07:58:11;;;;;;;;;9.50;7.00;;;;;20.01;79.59;101238.78;4995719;28;45655;-69
2021/07/14 08:00:36;;;;;;;;;9.50;7.00;;;;;20.00;79.69;101248.63;4991623;28;45964;-69
2021/07/14 08:03:02;;;;;;;;;7.25;6.50;;;;;19.94;79.12;101248.19;4995443;28;45673;-69
2021/07/14 08:05:28;;;;;;;;;5.25;5.25;;;;;19.86;78.77;101247.94;4995759;28;45440;-69
2021/07/14 08:07:54;;;;;;;;;9.00;6.75;;;;;19.71;78.88;101250.75;4995301;28;45607;-68
2021/07/14 08:10:19;;;;;;;;;8.50;8.00;;;;;19.61;78.97;101254.22;4995957;28;45494;-68
2021/07/14 08:12:44;;;;;;;;;7.25;7.00;;;;;19.51;78.88;101257.50;4995998;28;45321;-68
2021/07/14 08:15:10;;;;;;;;;7.00;6.75;;;;;19.43;78.72;101256.38;4995816;28;45559;-68
2021/07/14 08:17:36;;;;;;;;;9.25;7.50;;;;;19.35;78.95;101256.06;4995859;28;45444;-68
2021/07/14 08:20:04;;;;;;;;;15.75;15.75;;;;;19.27;78.95;101256.63;4995386;28;45490;-68
2021/07/14 08:22:29;;;;;;;;;8.50;7.75;;;;;19.20;78.82;101266.81;4996252;28;45414;-70
2021/07/14 08:24:55;;;;;;;;;6.00;5.00;;;;;19.11;79.52;101261.31;4993140;28;45479;-69
2021/07/14 08:27:24;;;;;;;;;10.50;9.25;;;;;19.07;79.47;101271.34;4994082;28;45495;-69
2021/07/14 08:29:49;;;;;;;;;9.75;7.00;;;;;19.02;78.94;101269.00;4994659;28;45570;-69
2021/07/14 08:32:15;;;;;;;;;10.75;7.50;;;;;19.00;78.79;101265.59;4995079;28;45673;-70
2021/07/14 08:34:40;;;;;;;;;6.50;5.50;;;;;19.01;78.97;101275.28;4995363;28;46712;-69
2021/07/14 08:37:06;;;;;;;;;8.75;6.50;;;;;19.01;79.37;101274.44;4994979;28;45452;-69
2021/07/14 08:39:31;;;;;;;;;6.25;6.25;;;;;18.98;79.10;101271.97;4995298;28;45416;-70
2021/07/14 08:42:01;;;;;;;;;7.00;7.00;;;;;19.00;79.03;101275.38;4994382;28;45484;-70
2021/07/14 08:44:27;;;;;;;;;132.00;122.50;;;;;19.00;79.26;101275.38;4994237;28;46555;-70
2021/07/14 08:46:54;;;;;;;;;27.50;24.00;;;;;19.06;79.33;101279.44;4992194;28;45414;-70
2021/07/14 08:49:19;;;;;;;;;6.00;5.50;;;;;19.09;79.17;101281.88;4992533;28;45517;-70
2021/07/14 08:51:45;;;;;;;;;6.75;5.25;;;;;19.10;79.12;101284.41;4995253;28;45451;-70
2021/07/14 08:54:11;;;;;;;;;8.00;7.00;;;;;19.14;79.48;101288.59;4992502;28;46778;-69
2021/07/14 08:56:37;;;;;;;;;6.25;6.25;;;;;19.21;78.54;101284.53;4992422;28;45847;-70
2021/07/14 08:59:03;;;;;;;;;8.25;5.00;;;;;19.26;78.90;101292.19;4994068;28;45382;-70
2021/07/14 09:01:28;;;;;;;;;9.50;7.25;;;;;19.31;78.92;101292.72;4995488;28;45621;-69
2021/07/14 09:03:54;;;;;;;;;6.00;6.00;;;;;19.32;78.65;101283.78;4994693;28;45514;-70
2021/07/14 09:06:19;;;;;;;;;4.75;4.75;;;;;19.41;78.13;101292.91;4994999;28;45619;-69
2021/07/14 09:08:44;;;;;;;;;6.50;4.75;;;;;19.38;77.40;101283.34;4995068;28;45481;-70
2021/07/14 09:11:10;;;;;;;;;5.25;5.00;;;;;19.38;77.75;101296.66;4995052;28;45471;-70
2021/07/14 09:13:37;;;;;;;;;6.00;6.00;;;;;19.38;77.49;101293.16;4994628;28;46628;-70
2021/07/14 09:16:04;;;;;;;;;8.50;7.00;;;;;19.39;77.63;101301.03;4994677;28;45444;-70
2021/07/14 09:18:31;;;;;;;;;4.00;4.00;;;;;19.41;77.17;101295.59;4996036;28;45518;-70
2021/07/14 09:20:58;;;;;;;;;6.00;6.00;;;;;19.45;77.61;101289.09;4994315;28;45460;-70
2021/07/14 09:23:25;;;;;;;;;5.00;5.00;;;;;19.53;77.88;101298.25;4993916;28;47229;-70
2021/07/14 09:26:03;;;;;;;;;5.75;5.75;;;;;19.54;77.55;101289.28;4993904;28;45373;-70
2021/07/14 09:28:34;;;;;;;;;6.25;6.25;;;;;19.57;76.74;101296.19;4994371;28;45552;-70
2021/07/14 09:31:04;;;;;;;;;5.75;5.75;;;;;19.60;76.95;101290.69;4976566;28;45476;-71
2021/07/14 09:33:30;;;;;;;;;7.00;5.75;;;;;19.62;77.42;101290.56;4994165;28;46319;-70
2021/07/14 09:35:59;;;;;;;;;5.50;5.50;;;;;19.68;77.43;101300.78;4993942;28;45824;-70
2021/07/14 09:38:29;;;;;;;;;117.50;104.75;;;;;19.76;76.88;101293.09;4994281;28;45490;-70
2021/07/14 09:40:59;;;;;;;;;8.75;7.00;;;;;19.92;76.71;101300.81;4994450;28;45378;-69
2021/07/14 09:43:31;;;;;;;;;4.25;4.25;;;;;20.00;76.58;101301.97;4993585;28;47020;-69
2021/07/14 09:46:04;;;;;;;;;6.25;4.75;;;;;20.10;76.24;101293.28;5010014;28;45575;-70
2021/07/14 09:48:36;;;;;;;;;5.50;5.50;;;;;20.13;76.05;101293.06;4994653;28;45995;-69
2021/07/14 09:51:03;;;;;;;;;7.75;5.75;;;;;20.14;75.55;101300.94;4993921;28;45858;-69
2021/07/14 09:53:34;;;;;;;;;6.75;5.00;;;;;20.16;75.44;101304.38;4993997;28;45724;-69
2021/07/14 09:56:09;;;;;;;;;6.50;5.00;;;;;20.11;75.33;101305.69;4994406;28;45682;-69
2021/07/14 09:58:35;;;;;;;;;3.75;3.75;;;;;20.06;75.51;101304.19;4994197;28;45493;-69
2021/07/14 10:01:04;;;;;;;;;4.75;4.00;;;;;20.07;75.30;101305.88;4994375;28;45270;-69
2021/07/14 10:03:38;;;;;;;;;175.50;160.00;;;;;20.05;75.21;101306.97;5010206;28;47334;-69
2021/07/14 10:06:05;;;;;;;;;5.25;5.25;;;;;20.07;75.58;101311.22;4993866;28;46800;-69
2021/07/14 10:08:32;;;;;;;;;4.00;3.50;;;;;20.06;75.09;101314.88;4993962;28;45495;-68
2021/07/14 10:11:20;;;;;;;;;8.25;5.75;;;;;20.07;75.45;101319.22;4993781;28;45440;-69
2021/07/14 10:14:00;;;;;;;;;4.75;4.50;;;;;20.13;75.37;101314.41;4993456;28;45535;-69
2021/07/14 10:16:32;;;;;;;;;4.00;4.00;;;;;20.15;74.31;101315.13;4994176;28;45542;-69
2021/07/14 10:19:07;;;;;;;;;6.00;6.00;;;;;20.17;74.78;101327.41;4994266;28;45597;-69
2021/07/14 10:21:47;;;;;;;;;5.50;5.25;;;;;20.19;75.22;101325.47;4995583;28;45528;-69
2021/07/14 10:24:16;;;;;;;;;5.00;4.50;;;;;20.19;75.06;101322.81;4991425;28;46285;-69
2021/07/14 10:26:44;;;;;;;;;5.25;5.25;;;;;20.25;74.85;101321.50;4993303;28;45761;-70
2021/07/14 10:29:10;;;;;;;;;5.50;4.50;;;;;20.26;74.39;101329.41;4993810;28;45464;-69
2021/07/14 10:31:36;;;;;;;;;4.25;4.00;;;;;20.34;74.45;101323.50;4994618;28;47672;-69
2021/07/14 10:34:03;;;;;;;;;5.25;5.25;;;;;20.51;74.06;101325.75;4993342;28;46572;-71
2021/07/14 10:36:31;;;;;;;;;5.50;4.25;;;;;20.80;73.95;101320.91;4994499;28;45397;-69
2021/07/14 10:39:04;;;;;;;;;6.75;6.75;;;;;21.10;73.14;101328.38;4993921;28;45758;-68
2021/07/14 10:41:31;;;;;;;;;5.50;5.50;;;;;21.29;72.68;101325.09;4993980;28;45330;-68
2021/07/14 10:43:59;;;;;;;;;6.75;5.25;;;;;21.33;72.21;101328.41;4993172;28;46681;-69
2021/07/14 10:46:26;;;;;;;;;5.00;5.00;;;;;21.30;72.00;101332.19;4993409;28;45427;-69
2021/07/14 10:48:54;;;;;;;;;6.25;5.00;;;;;21.26;72.52;101333.38;4993423;28;46062;-69
2021/07/14 10:51:20;;;;;;;;;4.75;4.75;;;;;21.27;71.99;101328.88;4993982;28;45356;-69
2021/07/14 10:53:50;;;;;;;;;4.50;3.75;;;;;21.29;72.39;101314.38;4992975;28;45593;-69
2021/07/14 10:56:16;;;;;;;;;6.00;6.00;;;;;21.46;71.18;101326.50;4993330;28;45395;-69
2021/07/14 10:58:43;;;;;;;;;6.50;6.25;;;;;21.58;71.22;101338.88;4993721;28;45483;-69
2021/07/14 11:01:09;;;;;;;;;7.50;5.75;;;;;21.79;71.83;101335.44;4994904;28;46764;-68
2021/07/14 11:03:38;;;;;;;;;6.00;5.75;;;;;21.93;70.78;101340.53;4996759;28;45411;-69
2021/07/14 11:06:05;;;;;;;;;6.00;6.00;;;;;22.03;70.91;101346.84;4996685;28;45664;-69
2021/07/14 11:08:50;;;;;;;;;4.50;4.25;;;;;22.32;71.28;101340.94;4996544;28;45471;-69
2021/07/14 11:11:17;;;;;;;;;6.00;5.25;;;;;22.51;69.60;101341.13;4994777;28;45401;-69
2021/07/14 11:13:45;;;;;;;;;6.25;4.25;;;;;22.74;69.21;101346.38;4995725;28;47094;-69
2021/07/14 11:16:28;;;;;;;;;6.00;6.00;;;;;22.74;68.33;101354.41;4993909;28;45269;-69
2021/07/14 11:18:57;;;;;;;;;6.75;5.00;;;;;22.59;68.55;101352.03;4994904;28;45296;-70
2021/07/14 11:21:47;;;;;;;;;6.00;6.00;;;;;22.46;68.87;101350.53;4995674;28;45394;-69
2021/07/14 11:24:48;;;;;;;;;6.50;6.00;;;;;22.46;68.58;101351.38;4995362;28;46384;-69
2021/07/14 11:27:22;;;;;;;;;8.00;6.50;;;;;22.60;68.87;101347.53;4995841;28;45385;-69
2021/07/14 11:29:55;;;;;;;;;7.25;5.00;;;;;22.90;68.49;101347.63;4996482;28;45514;-69
2021/07/14 11:32:39;;;;;;;;;7.00;6.00;;;;;23.30;67.99;101341.53;4997043;28;45476;-69